Terminal Aerodrome Forecast
Issued by NWS Twin Cities, MN

Home | Current Version | Previous Version | Graphics & Text | Print | Product List | Glossary On
Versions: 1 2 3 4 5 6 7 8 9 10 11 12 13 14
000
FTUS43 KMPX 142322
TAFSTC
TAF
KSTC 142322Z 1500/1524 21009KT P6SM SKC
     FM150800 27007KT P6SM SCT150
     FM151100 29008KT P6SM SCT020 BKN080
     FM151400 33012G18KT P6SM -SN SCT006 OVC010
     FM152300 34016G24KT P6SM -SN BKN020=

USA.gov is the U.S. government's official web portal to all federal, state and local government web resources and services.